Birchwood Airport Birchwood US
ICAO: PABV
IATA:
Category: Medium
Scheduled Services:

Elevation: 83 ft
TransAlt. 18000 ft.

Airport Communications:
AWOS 3:135.55
ANCHORAGE CNTR:132.3
CTAF/UNICOM:123

PABV Zoom In..

If you have problems with the map follow the link
https://www.worldairports.se/pages/airport.php?
ICAO=PABV

Runways:

(A) RW 02L length 4010 ft width 100 ft
---- / hdg 14

(B) RW 02R length 2200 ft width 50 ft
---- / hdg 14

(C) RW 20L length 2200 ft width 50 ft
---- / hdg 194

(D) RW 20R length 4010 ft width 100 ft
---- / hdg 194

Location; PABV
Day. 17 / Time. 01.56 Zulu
* Altimeter: 29.96
* Temperature: -03° c. -26.6°f.
* Wind from: 190° Speed 03 kn.
Dewpoint: -03° c.
Visibility: 9 Statute Miles.
Clouds: Overcast 5500 ft.

PABV 170156Z AUTO 19003KT 9SM OVC055 M03/M03 A2996 RMK AO2 SNB15E54 SLP153 P0000 T10281033 FZRANO


Wind From 190°
Speed 03 kn.

 
 
jpsmedia.com for Web Design worldairports.se 2018   terms of use